sensor_id;sensor_type;location;lat;lon;timestamp;P1;durP1;ratioP1;P2;durP2;ratioP2
67554;SDS011;54385;53.516;49.456;2022-10-16T00:02:17;4.97;;;2.90;;
67554;SDS011;54385;53.516;49.456;2022-10-16T00:04:49;5.43;;;2.70;;
67554;SDS011;54385;53.516;49.456;2022-10-16T00:07:20;3.97;;;2.72;;
67554;SDS011;54385;53.516;49.456;2022-10-16T00:09:52;4.53;;;2.88;;
67554;SDS011;54385;53.516;49.456;2022-10-16T00:12:24;5.13;;;2.70;;
67554;SDS011;54385;53.516;49.456;2022-10-16T00:14:56;6.25;;;3.30;;
67554;SDS011;54385;53.516;49.456;2022-10-16T00:17:27;8.98;;;2.92;;
67554;SDS011;54385;53.516;49.456;2022-10-16T00:20:00;4.32;;;2.95;;
67554;SDS011;54385;53.516;49.456;2022-10-16T00:22:33;4.40;;;2.60;;
67554;SDS011;54385;53.516;49.456;2022-10-16T00:25:05;5.55;;;3.40;;
67554;SDS011;54385;53.516;49.456;2022-10-16T00:27:37;5.13;;;3.20;;
67554;SDS011;54385;53.516;49.456;2022-10-16T00:30:09;8.52;;;3.05;;
67554;SDS011;54385;53.516;49.456;2022-10-16T00:32:41;6.20;;;3.42;;
67554;SDS011;54385;53.516;49.456;2022-10-16T00:35:12;6.05;;;4.60;;
67554;SDS011;54385;53.516;49.456;2022-10-16T00:37:44;4.55;;;2.97;;
67554;SDS011;54385;53.516;49.456;2022-10-16T00:40:16;6.10;;;3.53;;
67554;SDS011;54385;53.516;49.456;2022-10-16T00:42:48;6.13;;;3.20;;
67554;SDS011;54385;53.516;49.456;2022-10-16T00:45:19;5.32;;;3.50;;
67554;SDS011;54385;53.516;49.456;2022-10-16T00:47:52;6.88;;;3.33;;
67554;SDS011;54385;53.516;49.456;2022-10-16T00:50:28;6.28;;;3.70;;
67554;SDS011;54385;53.516;49.456;2022-10-16T00:53:00;9.10;;;3.83;;
67554;SDS011;54385;53.516;49.456;2022-10-16T00:55:33;9.40;;;3.83;;
67554;SDS011;54385;53.516;49.456;2022-10-16T00:58:05;9.15;;;4.20;;
67554;SDS011;54385;53.516;49.456;2022-10-16T01:00:37;6.22;;;3.60;;
67554;SDS011;54385;53.516;49.456;2022-10-16T01:03:23;7.57;;;4.07;;
67554;SDS011;54385;53.516;49.456;2022-10-16T01:06:09;7.95;;;3.60;;
67554;SDS011;54385;53.516;49.456;2022-10-16T01:18:08;11.93;;;6.45;;
67554;SDS011;54385;53.516;49.456;2022-10-16T01:20:50;12.95;;;6.97;;
67554;SDS011;54385;53.516;49.456;2022-10-16T01:23:47;10.32;;;5.78;;
67554;SDS011;54385;53.516;49.456;2022-10-16T01:29:05;13.55;;;6.43;;
67554;SDS011;54385;53.516;49.456;2022-10-16T01:31:47;12.50;;;6.55;;
67554;SDS011;54385;53.516;49.456;2022-10-16T01:34:25;15.75;;;6.75;;
67554;SDS011;54385;53.516;49.456;2022-10-16T01:37:08;13.60;;;6.28;;
67554;SDS011;54385;53.516;49.456;2022-10-16T01:39:45;21.38;;;6.43;;
67554;SDS011;54385;53.516;49.456;2022-10-16T01:42:22;8.52;;;5.75;;
67554;SDS011;54385;53.516;49.456;2022-10-16T01:44:59;13.57;;;5.53;;
67554;SDS011;54385;53.516;49.456;2022-10-16T01:47:32;10.15;;;5.47;;
67554;SDS011;54385;53.516;49.456;2022-10-16T01:50:06;12.90;;;5.93;;
67554;SDS011;54385;53.516;49.456;2022-10-16T01:52:40;11.05;;;4.70;;
67554;SDS011;54385;53.516;49.456;2022-10-16T01:55:17;11.25;;;5.13;;
67554;SDS011;54385;53.516;49.456;2022-10-16T01:57:55;10.63;;;4.68;;
67554;SDS011;54385;53.516;49.456;2022-10-16T02:00:29;11.65;;;5.40;;
67554;SDS011;54385;53.516;49.456;2022-10-16T02:03:01;13.57;;;5.82;;
67554;SDS011;54385;53.516;49.456;2022-10-16T02:05:51;9.70;;;5.25;;
67554;SDS011;54385;53.516;49.456;2022-10-16T02:08:27;11.55;;;4.60;;
67554;SDS011;54385;53.516;49.456;2022-10-16T02:11:00;10.88;;;4.30;;
67554;SDS011;54385;53.516;49.456;2022-10-16T02:13:35;10.75;;;5.43;;
67554;SDS011;54385;53.516;49.456;2022-10-16T02:16:11;9.30;;;4.88;;
67554;SDS011;54385;53.516;49.456;2022-10-16T02:18:45;7.75;;;3.95;;
67554;SDS011;54385;53.516;49.456;2022-10-16T02:21:26;12.57;;;5.55;;
67554;SDS011;54385;53.516;49.456;2022-10-16T02:24:09;12.93;;;5.07;;
67554;SDS011;54385;53.516;49.456;2022-10-16T02:26:48;11.88;;;4.75;;
67554;SDS011;54385;53.516;49.456;2022-10-16T02:29:25;11.55;;;6.10;;
67554;SDS011;54385;53.516;49.456;2022-10-16T02:32:01;8.90;;;4.43;;
67554;SDS011;54385;53.516;49.456;2022-10-16T02:34:35;14.45;;;4.38;;
67554;SDS011;54385;53.516;49.456;2022-10-16T02:37:08;11.35;;;5.00;;
67554;SDS011;54385;53.516;49.456;2022-10-16T02:42:13;9.63;;;4.13;;
67554;SDS011;54385;53.516;49.456;2022-10-16T02:44:46;9.35;;;4.65;;
67554;SDS011;54385;53.516;49.456;2022-10-16T02:47:17;10.20;;;4.43;;
67554;SDS011;54385;53.516;49.456;2022-10-16T02:49:49;10.00;;;3.92;;
67554;SDS011;54385;53.516;49.456;2022-10-16T02:52:21;7.55;;;4.35;;
67554;SDS011;54385;53.516;49.456;2022-10-16T02:54:53;8.90;;;4.32;;
67554;SDS011;54385;53.516;49.456;2022-10-16T02:57:25;12.00;;;4.63;;
67554;SDS011;54385;53.516;49.456;2022-10-16T02:59:57;11.38;;;3.97;;
67554;SDS011;54385;53.516;49.456;2022-10-16T03:02:29;11.55;;;4.25;;
67554;SDS011;54385;53.516;49.456;2022-10-16T03:05:01;7.78;;;4.03;;
67554;SDS011;54385;53.516;49.456;2022-10-16T03:07:33;6.43;;;3.40;;
67554;SDS011;54385;53.516;49.456;2022-10-16T03:10:04;10.45;;;4.03;;
67554;SDS011;54385;53.516;49.456;2022-10-16T03:12:37;7.32;;;4.32;;
67554;SDS011;54385;53.516;49.456;2022-10-16T03:15:09;8.23;;;4.53;;
67554;SDS011;54385;53.516;49.456;2022-10-16T03:17:41;8.43;;;4.28;;
67554;SDS011;54385;53.516;49.456;2022-10-16T03:20:13;9.07;;;4.05;;
67554;SDS011;54385;53.516;49.456;2022-10-16T03:22:44;9.48;;;4.60;;
67554;SDS011;54385;53.516;49.456;2022-10-16T03:25:16;11.35;;;5.85;;
67554;SDS011;54385;53.516;49.456;2022-10-16T03:27:48;11.25;;;4.50;;
67554;SDS011;54385;53.516;49.456;2022-10-16T03:30:20;6.85;;;4.10;;
67554;SDS011;54385;53.516;49.456;2022-10-16T03:32:52;8.57;;;3.80;;
67554;SDS011;54385;53.516;49.456;2022-10-16T03:35:26;9.63;;;3.90;;
67554;SDS011;54385;53.516;49.456;2022-10-16T03:37:58;14.38;;;4.78;;
67554;SDS011;54385;53.516;49.456;2022-10-16T03:40:30;6.38;;;3.47;;
67554;SDS011;54385;53.516;49.456;2022-10-16T03:43:03;8.50;;;4.00;;
67554;SDS011;54385;53.516;49.456;2022-10-16T03:45:34;9.85;;;4.07;;
67554;SDS011;54385;53.516;49.456;2022-10-16T03:48:06;8.93;;;3.55;;
67554;SDS011;54385;53.516;49.456;2022-10-16T03:50:38;9.68;;;3.92;;
67554;SDS011;54385;53.516;49.456;2022-10-16T03:53:10;10.23;;;3.67;;
67554;SDS011;54385;53.516;49.456;2022-10-16T03:55:42;14.82;;;3.70;;
67554;SDS011;54385;53.516;49.456;2022-10-16T03:58:15;8.88;;;4.75;;
67554;SDS011;54385;53.516;49.456;2022-10-16T04:00:47;9.73;;;3.70;;
67554;SDS011;54385;53.516;49.456;2022-10-16T04:03:19;7.00;;;3.67;;
67554;SDS011;54385;53.516;49.456;2022-10-16T04:05:52;9.77;;;4.05;;
67554;SDS011;54385;53.516;49.456;2022-10-16T04:08:24;10.38;;;4.53;;
67554;SDS011;54385;53.516;49.456;2022-10-16T04:10:55;6.68;;;3.40;;
67554;SDS011;54385;53.516;49.456;2022-10-16T04:13:27;7.85;;;3.78;;
67554;SDS011;54385;53.516;49.456;2022-10-16T04:15:59;8.55;;;4.05;;
67554;SDS011;54385;53.516;49.456;2022-10-16T04:18:31;11.55;;;4.20;;
67554;SDS011;54385;53.516;49.456;2022-10-16T04:21:06;9.35;;;4.10;;
67554;SDS011;54385;53.516;49.456;2022-10-16T04:23:38;8.35;;;4.22;;
67554;SDS011;54385;53.516;49.456;2022-10-16T04:26:10;14.65;;;4.70;;
67554;SDS011;54385;53.516;49.456;2022-10-16T04:28:42;12.75;;;5.18;;
67554;SDS011;54385;53.516;49.456;2022-10-16T04:31:14;10.93;;;4.30;;
67554;SDS011;54385;53.516;49.456;2022-10-16T04:33:46;12.77;;;4.75;;
67554;SDS011;54385;53.516;49.456;2022-10-16T04:36:17;7.47;;;4.22;;
67554;SDS011;54385;53.516;49.456;2022-10-16T04:38:49;8.68;;;3.85;;
67554;SDS011;54385;53.516;49.456;2022-10-16T04:41:21;9.73;;;4.47;;
67554;SDS011;54385;53.516;49.456;2022-10-16T04:43:53;10.27;;;4.03;;
67554;SDS011;54385;53.516;49.456;2022-10-16T04:46:25;6.75;;;3.90;;
67554;SDS011;54385;53.516;49.456;2022-10-16T04:48:56;14.57;;;5.47;;
67554;SDS011;54385;53.516;49.456;2022-10-16T04:51:29;17.33;;;5.22;;
67554;SDS011;54385;53.516;49.456;2022-10-16T04:54:01;14.32;;;5.75;;
67554;SDS011;54385;53.516;49.456;2022-10-16T04:56:33;14.27;;;5.20;;
67554;SDS011;54385;53.516;49.456;2022-10-16T04:59:11;9.20;;;4.63;;
67554;SDS011;54385;53.516;49.456;2022-10-16T05:01:42;10.68;;;4.90;;
67554;SDS011;54385;53.516;49.456;2022-10-16T05:04:14;9.35;;;5.30;;
67554;SDS011;54385;53.516;49.456;2022-10-16T05:06:47;9.77;;;4.18;;
67554;SDS011;54385;53.516;49.456;2022-10-16T05:09:19;7.57;;;4.50;;
67554;SDS011;54385;53.516;49.456;2022-10-16T05:11:51;8.65;;;4.55;;
67554;SDS011;54385;53.516;49.456;2022-10-16T05:14:23;5.25;;;4.05;;
67554;SDS011;54385;53.516;49.456;2022-10-16T05:16:54;7.70;;;4.45;;
67554;SDS011;54385;53.516;49.456;2022-10-16T05:19:26;7.30;;;4.18;;
67554;SDS011;54385;53.516;49.456;2022-10-16T05:21:58;7.30;;;4.25;;
67554;SDS011;54385;53.516;49.456;2022-10-16T05:24:30;5.85;;;4.18;;
67554;SDS011;54385;53.516;49.456;2022-10-16T05:27:01;5.82;;;4.60;;
67554;SDS011;54385;53.516;49.456;2022-10-16T05:29:33;6.07;;;3.90;;
67554;SDS011;54385;53.516;49.456;2022-10-16T05:32:06;5.70;;;4.10;;
67554;SDS011;54385;53.516;49.456;2022-10-16T05:34:37;8.00;;;4.05;;
67554;SDS011;54385;53.516;49.456;2022-10-16T05:37:09;6.45;;;3.70;;
67554;SDS011;54385;53.516;49.456;2022-10-16T05:39:42;7.32;;;3.80;;
67554;SDS011;54385;53.516;49.456;2022-10-16T05:42:14;6.15;;;3.95;;
67554;SDS011;54385;53.516;49.456;2022-10-16T05:44:46;9.38;;;4.20;;
67554;SDS011;54385;53.516;49.456;2022-10-16T05:47:17;5.82;;;4.05;;
67554;SDS011;54385;53.516;49.456;2022-10-16T05:49:51;6.35;;;4.00;;
67554;SDS011;54385;53.516;49.456;2022-10-16T05:52:24;4.53;;;3.53;;
67554;SDS011;54385;53.516;49.456;2022-10-16T05:54:56;5.90;;;3.78;;
67554;SDS011;54385;53.516;49.456;2022-10-16T05:57:28;4.63;;;3.35;;
67554;SDS011;54385;53.516;49.456;2022-10-16T06:00:00;9.23;;;3.22;;
67554;SDS011;54385;53.516;49.456;2022-10-16T06:02:32;4.57;;;4.05;;
67554;SDS011;54385;53.516;49.456;2022-10-16T06:05:04;6.30;;;3.42;;
67554;SDS011;54385;53.516;49.456;2022-10-16T06:07:36;4.45;;;3.63;;
67554;SDS011;54385;53.516;49.456;2022-10-16T06:10:08;5.85;;;4.13;;
67554;SDS011;54385;53.516;49.456;2022-10-16T06:12:40;5.82;;;3.97;;
67554;SDS011;54385;53.516;49.456;2022-10-16T06:15:12;6.32;;;4.10;;
67554;SDS011;54385;53.516;49.456;2022-10-16T06:17:44;9.15;;;4.22;;
67554;SDS011;54385;53.516;49.456;2022-10-16T06:20:15;7.40;;;4.32;;
67554;SDS011;54385;53.516;49.456;2022-10-16T06:22:47;11.05;;;3.95;;
67554;SDS011;54385;53.516;49.456;2022-10-16T06:25:19;7.60;;;4.40;;
67554;SDS011;54385;53.516;49.456;2022-10-16T06:27:51;6.80;;;5.00;;
67554;SDS011;54385;53.516;49.456;2022-10-16T06:30:23;8.75;;;4.95;;
67554;SDS011;54385;53.516;49.456;2022-10-16T06:32:54;8.20;;;4.30;;
67554;SDS011;54385;53.516;49.456;2022-10-16T06:35:26;8.77;;;4.50;;
67554;SDS011;54385;53.516;49.456;2022-10-16T06:38:00;8.23;;;5.05;;
67554;SDS011;54385;53.516;49.456;2022-10-16T06:40:32;6.68;;;4.45;;
67554;SDS011;54385;53.516;49.456;2022-10-16T06:43:03;7.60;;;4.68;;
67554;SDS011;54385;53.516;49.456;2022-10-16T06:45:35;6.57;;;4.57;;
67554;SDS011;54385;53.516;49.456;2022-10-16T06:48:07;7.57;;;4.57;;
67554;SDS011;54385;53.516;49.456;2022-10-16T06:50:39;5.88;;;4.95;;
67554;SDS011;54385;53.516;49.456;2022-10-16T06:53:10;8.75;;;4.88;;
67554;SDS011;54385;53.516;49.456;2022-10-16T06:55:42;7.53;;;4.93;;
67554;SDS011;54385;53.516;49.456;2022-10-16T06:58:14;9.73;;;4.32;;
67554;SDS011;54385;53.516;49.456;2022-10-16T07:00:46;7.00;;;4.38;;
67554;SDS011;54385;53.516;49.456;2022-10-16T07:03:18;7.28;;;4.88;;
67554;SDS011;54385;53.516;49.456;2022-10-16T07:05:50;8.95;;;4.28;;
67554;SDS011;54385;53.516;49.456;2022-10-16T07:08:22;8.73;;;4.45;;
67554;SDS011;54385;53.516;49.456;2022-10-16T07:11:04;7.82;;;3.90;;
67554;SDS011;54385;53.516;49.456;2022-10-16T07:13:37;6.20;;;3.40;;
67554;SDS011;54385;53.516;49.456;2022-10-16T07:16:11;5.82;;;3.97;;
67554;SDS011;54385;53.516;49.456;2022-10-16T07:18:45;5.78;;;3.97;;
67554;SDS011;54385;53.516;49.456;2022-10-16T07:21:18;4.20;;;3.58;;
67554;SDS011;54385;53.516;49.456;2022-10-16T07:23:57;5.35;;;4.05;;
67554;SDS011;54385;53.516;49.456;2022-10-16T07:26:32;6.30;;;4.07;;
67554;SDS011;54385;53.516;49.456;2022-10-16T07:29:12;7.60;;;4.50;;
67554;SDS011;54385;53.516;49.456;2022-10-16T07:31:51;3.47;;;3.00;;
67554;SDS011;54385;53.516;49.456;2022-10-16T07:34:23;3.25;;;2.72;;
67554;SDS011;54385;53.516;49.456;2022-10-16T07:36:55;8.60;;;2.85;;
67554;SDS011;54385;53.516;49.456;2022-10-16T07:39:27;3.17;;;1.75;;
67554;SDS011;54385;53.516;49.456;2022-10-16T07:41:58;5.57;;;2.53;;
67554;SDS011;54385;53.516;49.456;2022-10-16T07:44:30;5.32;;;2.65;;
67554;SDS011;54385;53.516;49.456;2022-10-16T07:47:02;3.88;;;3.00;;
67554;SDS011;54385;53.516;49.456;2022-10-16T07:49:34;4.53;;;3.10;;
67554;SDS011;54385;53.516;49.456;2022-10-16T07:52:05;4.75;;;2.90;;
67554;SDS011;54385;53.516;49.456;2022-10-16T07:54:37;5.22;;;2.40;;
67554;SDS011;54385;53.516;49.456;2022-10-16T07:57:09;5.80;;;2.90;;
67554;SDS011;54385;53.516;49.456;2022-10-16T07:59:41;4.75;;;3.03;;
67554;SDS011;54385;53.516;49.456;2022-10-16T08:02:12;3.38;;;2.35;;
67554;SDS011;54385;53.516;49.456;2022-10-16T08:04:46;2.78;;;2.45;;
67554;SDS011;54385;53.516;49.456;2022-10-16T08:07:18;6.38;;;2.55;;
67554;SDS011;54385;53.516;49.456;2022-10-16T08:09:50;4.15;;;2.42;;
67554;SDS011;54385;53.516;49.456;2022-10-16T08:12:22;5.20;;;2.42;;
67554;SDS011;54385;53.516;49.456;2022-10-16T08:14:54;4.63;;;2.60;;
67554;SDS011;54385;53.516;49.456;2022-10-16T08:17:26;3.80;;;2.38;;
67554;SDS011;54385;53.516;49.456;2022-10-16T08:19:57;5.28;;;2.80;;
67554;SDS011;54385;53.516;49.456;2022-10-16T08:22:29;6.75;;;2.90;;
67554;SDS011;54385;53.516;49.456;2022-10-16T08:25:01;6.78;;;2.75;;
67554;SDS011;54385;53.516;49.456;2022-10-16T08:27:33;3.42;;;2.38;;
67554;SDS011;54385;53.516;49.456;2022-10-16T08:30:05;3.45;;;2.40;;
67554;SDS011;54385;53.516;49.456;2022-10-16T08:32:37;3.67;;;2.28;;
67554;SDS011;54385;53.516;49.456;2022-10-16T08:35:09;3.38;;;2.15;;
67554;SDS011;54385;53.516;49.456;2022-10-16T08:51:16;3.10;;;2.30;;
67554;SDS011;54385;53.516;49.456;2022-10-16T08:54:04;4.53;;;2.70;;
67554;SDS011;54385;53.516;49.456;2022-10-16T08:56:39;3.88;;;2.60;;
67554;SDS011;54385;53.516;49.456;2022-10-16T08:59:11;6.95;;;5.43;;
67554;SDS011;54385;53.516;49.456;2022-10-16T09:01:45;4.93;;;2.10;;
67554;SDS011;54385;53.516;49.456;2022-10-16T09:07:17;4.95;;;1.83;;
67554;SDS011;54385;53.516;49.456;2022-10-16T09:10:17;2.80;;;2.00;;
67554;SDS011;54385;53.516;49.456;2022-10-16T09:16:09;2.97;;;1.60;;
67554;SDS011;54385;53.516;49.456;2022-10-16T09:18:58;3.67;;;1.85;;
67554;SDS011;54385;53.516;49.456;2022-10-16T09:21:41;2.67;;;1.77;;
67554;SDS011;54385;53.516;49.456;2022-10-16T09:24:16;3.72;;;1.88;;
67554;SDS011;54385;53.516;49.456;2022-10-16T09:26:49;2.80;;;1.92;;
67554;SDS011;54385;53.516;49.456;2022-10-16T09:29:21;4.90;;;2.95;;
67554;SDS011;54385;53.516;49.456;2022-10-16T09:32:10;4.85;;;1.90;;
67554;SDS011;54385;53.516;49.456;2022-10-16T09:34:49;4.97;;;1.80;;
67554;SDS011;54385;53.516;49.456;2022-10-16T09:37:23;3.40;;;1.90;;
67554;SDS011;54385;53.516;49.456;2022-10-16T09:39:57;5.28;;;2.35;;
67554;SDS011;54385;53.516;49.456;2022-10-16T09:42:32;2.85;;;2.03;;
67554;SDS011;54385;53.516;49.456;2022-10-16T09:45:19;4.18;;;2.10;;
67554;SDS011;54385;53.516;49.456;2022-10-16T09:47:53;2.92;;;2.08;;
67554;SDS011;54385;53.516;49.456;2022-10-16T09:50:26;3.80;;;2.47;;
67554;SDS011;54385;53.516;49.456;2022-10-16T09:53:04;4.55;;;2.10;;
67554;SDS011;54385;53.516;49.456;2022-10-16T09:55:50;4.78;;;2.28;;
67554;SDS011;54385;53.516;49.456;2022-10-16T09:58:23;3.45;;;2.25;;
67554;SDS011;54385;53.516;49.456;2022-10-16T10:00:55;6.50;;;2.08;;
67554;SDS011;54385;53.516;49.456;2022-10-16T10:03:35;6.18;;;2.63;;
67554;SDS011;54385;53.516;49.456;2022-10-16T10:09:01;2.97;;;1.92;;
67554;SDS011;54385;53.516;49.456;2022-10-16T10:16:52;3.50;;;2.20;;
67554;SDS011;54385;53.516;49.456;2022-10-16T10:22:17;3.33;;;2.15;;
67554;SDS011;54385;53.516;49.456;2022-10-16T10:33:28;3.50;;;2.85;;
67554;SDS011;54385;53.516;49.456;2022-10-16T10:38:50;3.78;;;2.50;;
67554;SDS011;54385;53.516;49.456;2022-10-16T10:41:48;4.68;;;2.50;;
67554;SDS011;54385;53.516;49.456;2022-10-16T10:52:53;6.90;;;1.85;;
67554;SDS011;54385;53.516;49.456;2022-10-16T10:55:59;3.97;;;2.22;;
67554;SDS011;54385;53.516;49.456;2022-10-16T11:07:18;4.15;;;2.33;;
67554;SDS011;54385;53.516;49.456;2022-10-16T11:10:02;3.05;;;1.88;;
67554;SDS011;54385;53.516;49.456;2022-10-16T11:12:47;3.65;;;2.10;;
67554;SDS011;54385;53.516;49.456;2022-10-16T11:15:25;2.97;;;1.90;;
67554;SDS011;54385;53.516;49.456;2022-10-16T11:20:49;3.90;;;1.70;;
67554;SDS011;54385;53.516;49.456;2022-10-16T11:23:46;3.22;;;1.80;;
67554;SDS011;54385;53.516;49.456;2022-10-16T11:26:21;3.50;;;1.77;;
67554;SDS011;54385;53.516;49.456;2022-10-16T11:29:04;4.00;;;2.00;;
67554;SDS011;54385;53.516;49.456;2022-10-16T11:31:46;2.67;;;1.90;;
67554;SDS011;54385;53.516;49.456;2022-10-16T11:34:34;2.45;;;1.70;;
67554;SDS011;54385;53.516;49.456;2022-10-16T11:37:18;3.08;;;1.75;;
67554;SDS011;54385;53.516;49.456;2022-10-16T11:46:04;3.45;;;2.65;;
67554;SDS011;54385;53.516;49.456;2022-10-16T11:48:43;3.25;;;2.15;;
67554;SDS011;54385;53.516;49.456;2022-10-16T11:54:20;3.25;;;2.20;;
67554;SDS011;54385;53.516;49.456;2022-10-16T11:57:07;2.88;;;2.15;;
67554;SDS011;54385;53.516;49.456;2022-10-16T11:59:48;7.40;;;3.20;;
67554;SDS011;54385;53.516;49.456;2022-10-16T12:02:49;3.50;;;2.40;;
67554;SDS011;54385;53.516;49.456;2022-10-16T12:08:21;3.15;;;2.00;;
67554;SDS011;54385;53.516;49.456;2022-10-16T12:11:05;1.90;;;1.48;;
67554;SDS011;54385;53.516;49.456;2022-10-16T12:14:18;4.05;;;1.85;;
67554;SDS011;54385;53.516;49.456;2022-10-16T12:25:26;2.95;;;1.90;;
67554;SDS011;54385;53.516;49.456;2022-10-16T12:30:37;3.65;;;2.40;;
67554;SDS011;54385;53.516;49.456;2022-10-16T12:35:52;4.20;;;2.20;;
67554;SDS011;54385;53.516;49.456;2022-10-16T12:38:26;3.25;;;2.13;;
67554;SDS011;54385;53.516;49.456;2022-10-16T12:41:07;6.68;;;2.10;;
67554;SDS011;54385;53.516;49.456;2022-10-16T12:43:44;2.72;;;1.85;;
67554;SDS011;54385;53.516;49.456;2022-10-16T12:48:50;8.10;;;4.53;;
67554;SDS011;54385;53.516;49.456;2022-10-16T12:51:33;30.33;;;15.93;;
67554;SDS011;54385;53.516;49.456;2022-10-16T12:56:51;16.65;;;7.57;;
67554;SDS011;54385;53.516;49.456;2022-10-16T13:02:49;9.48;;;6.05;;
67554;SDS011;54385;53.516;49.456;2022-10-16T13:20:27;4.25;;;2.33;;
67554;SDS011;54385;53.516;49.456;2022-10-16T13:28:44;6.65;;;3.67;;
67554;SDS011;54385;53.516;49.456;2022-10-16T13:31:21;8.65;;;4.05;;
67554;SDS011;54385;53.516;49.456;2022-10-16T13:33:56;4.43;;;3.42;;
67554;SDS011;54385;53.516;49.456;2022-10-16T13:36:34;6.75;;;3.63;;
67554;SDS011;54385;53.516;49.456;2022-10-16T13:39:14;9.18;;;4.10;;
67554;SDS011;54385;53.516;49.456;2022-10-16T13:44:48;5.22;;;3.53;;
67554;SDS011;54385;53.516;49.456;2022-10-16T13:47:23;8.98;;;4.00;;
67554;SDS011;54385;53.516;49.456;2022-10-16T13:50:00;5.00;;;3.53;;
67554;SDS011;54385;53.516;49.456;2022-10-16T13:52:42;13.07;;;5.20;;
67554;SDS011;54385;53.516;49.456;2022-10-16T13:55:16;9.70;;;4.10;;
67554;SDS011;54385;53.516;49.456;2022-10-16T13:57:49;8.68;;;3.95;;
67554;SDS011;54385;53.516;49.456;2022-10-16T14:00:22;8.00;;;4.35;;
67554;SDS011;54385;53.516;49.456;2022-10-16T14:02:58;6.55;;;4.95;;
67554;SDS011;54385;53.516;49.456;2022-10-16T14:05:42;9.88;;;6.07;;
67554;SDS011;54385;53.516;49.456;2022-10-16T14:08:20;10.68;;;5.57;;
67554;SDS011;54385;53.516;49.456;2022-10-16T14:10:55;18.38;;;5.93;;
67554;SDS011;54385;53.516;49.456;2022-10-16T14:13:30;13.82;;;7.30;;
67554;SDS011;54385;53.516;49.456;2022-10-16T14:16:10;12.68;;;5.85;;
67554;SDS011;54385;53.516;49.456;2022-10-16T14:18:52;14.30;;;8.75;;
67554;SDS011;54385;53.516;49.456;2022-10-16T14:21:34;19.40;;;9.30;;
67554;SDS011;54385;53.516;49.456;2022-10-16T14:24:13;29.33;;;7.68;;
67554;SDS011;54385;53.516;49.456;2022-10-16T14:26:56;21.90;;;7.43;;
67554;SDS011;54385;53.516;49.456;2022-10-16T14:29:29;16.85;;;7.90;;
67554;SDS011;54385;53.516;49.456;2022-10-16T14:32:04;20.90;;;8.73;;
67554;SDS011;54385;53.516;49.456;2022-10-16T14:34:37;20.55;;;8.75;;
67554;SDS011;54385;53.516;49.456;2022-10-16T14:39:51;26.08;;;11.82;;
67554;SDS011;54385;53.516;49.456;2022-10-16T14:42:24;21.00;;;10.88;;
67554;SDS011;54385;53.516;49.456;2022-10-16T14:44:57;26.23;;;11.80;;
67554;SDS011;54385;53.516;49.456;2022-10-16T14:47:29;27.15;;;11.80;;
67554;SDS011;54385;53.516;49.456;2022-10-16T14:50:02;26.00;;;11.13;;
67554;SDS011;54385;53.516;49.456;2022-10-16T14:52:34;20.77;;;10.65;;
67554;SDS011;54385;53.516;49.456;2022-10-16T14:55:07;28.98;;;10.48;;
67554;SDS011;54385;53.516;49.456;2022-10-16T14:57:39;30.75;;;10.65;;
67554;SDS011;54385;53.516;49.456;2022-10-16T15:00:29;26.90;;;10.93;;
67554;SDS011;54385;53.516;49.456;2022-10-16T15:03:01;28.42;;;9.02;;
67554;SDS011;54385;53.516;49.456;2022-10-16T15:05:32;20.58;;;8.98;;
67554;SDS011;54385;53.516;49.456;2022-10-16T15:08:04;26.42;;;8.80;;
67554;SDS011;54385;53.516;49.456;2022-10-16T15:10:41;18.73;;;7.65;;
67554;SDS011;54385;53.516;49.456;2022-10-16T15:13:15;17.77;;;6.55;;
67554;SDS011;54385;53.516;49.456;2022-10-16T15:15:47;22.60;;;7.20;;
67554;SDS011;54385;53.516;49.456;2022-10-16T15:18:22;15.02;;;6.78;;
67554;SDS011;54385;53.516;49.456;2022-10-16T15:20:54;18.70;;;6.63;;
67554;SDS011;54385;53.516;49.456;2022-10-16T15:23:26;13.48;;;5.78;;
67554;SDS011;54385;53.516;49.456;2022-10-16T15:25:58;14.00;;;6.28;;
67554;SDS011;54385;53.516;49.456;2022-10-16T15:28:30;11.50;;;5.78;;
67554;SDS011;54385;53.516;49.456;2022-10-16T15:31:02;14.60;;;6.13;;
67554;SDS011;54385;53.516;49.456;2022-10-16T15:33:36;16.05;;;6.30;;
67554;SDS011;54385;53.516;49.456;2022-10-16T15:36:08;14.90;;;5.20;;
67554;SDS011;54385;53.516;49.456;2022-10-16T15:38:40;11.60;;;5.13;;
67554;SDS011;54385;53.516;49.456;2022-10-16T15:41:12;16.17;;;5.72;;
67554;SDS011;54385;53.516;49.456;2022-10-16T15:43:43;10.27;;;5.30;;
67554;SDS011;54385;53.516;49.456;2022-10-16T15:46:17;18.83;;;6.63;;
67554;SDS011;54385;53.516;49.456;2022-10-16T15:48:51;12.65;;;5.22;;
67554;SDS011;54385;53.516;49.456;2022-10-16T15:51:28;13.70;;;5.00;;
67554;SDS011;54385;53.516;49.456;2022-10-16T15:54:03;15.23;;;5.80;;
67554;SDS011;54385;53.516;49.456;2022-10-16T15:56:35;12.02;;;5.65;;
67554;SDS011;54385;53.516;49.456;2022-10-16T15:59:07;10.52;;;5.30;;
67554;SDS011;54385;53.516;49.456;2022-10-16T16:01:39;11.52;;;5.97;;
67554;SDS011;54385;53.516;49.456;2022-10-16T16:04:11;11.32;;;4.72;;
67554;SDS011;54385;53.516;49.456;2022-10-16T16:06:43;13.93;;;5.35;;
67554;SDS011;54385;53.516;49.456;2022-10-16T16:09:18;11.63;;;6.03;;
67554;SDS011;54385;53.516;49.456;2022-10-16T16:11:49;12.80;;;5.30;;
67554;SDS011;54385;53.516;49.456;2022-10-16T16:14:23;18.10;;;4.97;;
67554;SDS011;54385;53.516;49.456;2022-10-16T16:16:58;12.45;;;6.05;;
67554;SDS011;54385;53.516;49.456;2022-10-16T16:19:30;17.77;;;5.15;;
67554;SDS011;54385;53.516;49.456;2022-10-16T16:22:02;18.40;;;5.60;;
67554;SDS011;54385;53.516;49.456;2022-10-16T16:24:34;9.95;;;4.97;;
67554;SDS011;54385;53.516;49.456;2022-10-16T16:27:06;10.90;;;4.93;;
67554;SDS011;54385;53.516;49.456;2022-10-16T16:29:38;13.82;;;5.63;;
67554;SDS011;54385;53.516;49.456;2022-10-16T16:32:10;13.38;;;4.85;;
67554;SDS011;54385;53.516;49.456;2022-10-16T16:34:42;12.00;;;5.68;;
67554;SDS011;54385;53.516;49.456;2022-10-16T16:37:14;12.02;;;5.40;;
67554;SDS011;54385;53.516;49.456;2022-10-16T16:39:46;12.98;;;5.50;;
67554;SDS011;54385;53.516;49.456;2022-10-16T16:42:17;18.90;;;6.40;;
67554;SDS011;54385;53.516;49.456;2022-10-16T16:44:49;17.10;;;7.07;;
67554;SDS011;54385;53.516;49.456;2022-10-16T16:47:21;15.60;;;7.68;;
67554;SDS011;54385;53.516;49.456;2022-10-16T16:49:53;18.02;;;7.45;;
67554;SDS011;54385;53.516;49.456;2022-10-16T16:52:25;15.73;;;8.00;;
67554;SDS011;54385;53.516;49.456;2022-10-16T16:54:56;16.20;;;7.60;;
67554;SDS011;54385;53.516;49.456;2022-10-16T16:57:28;19.58;;;8.48;;
67554;SDS011;54385;53.516;49.456;2022-10-16T17:00:00;14.68;;;6.70;;
67554;SDS011;54385;53.516;49.456;2022-10-16T17:02:32;15.07;;;6.60;;
67554;SDS011;54385;53.516;49.456;2022-10-16T17:05:04;16.83;;;5.90;;
67554;SDS011;54385;53.516;49.456;2022-10-16T17:07:36;19.55;;;7.10;;
67554;SDS011;54385;53.516;49.456;2022-10-16T17:10:11;18.38;;;7.25;;
67554;SDS011;54385;53.516;49.456;2022-10-16T17:12:42;14.57;;;6.97;;
67554;SDS011;54385;53.516;49.456;2022-10-16T17:15:14;17.48;;;7.72;;
67554;SDS011;54385;53.516;49.456;2022-10-16T17:17:46;18.30;;;8.68;;
67554;SDS011;54385;53.516;49.456;2022-10-16T17:20:18;20.63;;;9.75;;
67554;SDS011;54385;53.516;49.456;2022-10-16T17:22:50;16.75;;;8.18;;
67554;SDS011;54385;53.516;49.456;2022-10-16T17:25:22;16.52;;;8.40;;
67554;SDS011;54385;53.516;49.456;2022-10-16T17:27:53;15.57;;;7.82;;
67554;SDS011;54385;53.516;49.456;2022-10-16T17:30:25;16.77;;;7.57;;